EPWA

Warsaw Chopin Airport

Warsaw, Poland
METAR EPWA 150300Z 25004KT CAVOK 16/15 Q1012 NOSIG
Observed Flight Rules
Aug-15 @ 03:00 UTC (36 minutes ago) Visual Flight Rules
Wind Visibility Clouds
250° at 4 knots 10,000+ meters
  • Clear skies
Temperatures Readings
Current 16°C / 61°F
Dewpoint 15°C / 59°F
Humidity 94%
Altimeter 29.88" Hg
Pressure 1012 hPa
Elevation 107
METAR EPWA 150300Z 25004KT CAVOK 16/15 Q1012 NOSIG
Observed Flight Rules
Aug-15 @ 03:00 UTC
(36 minutes ago)
VFR
Wind Visibility
250° at 4 knots 10,000+ meters
Clouds
  • Clear skies
Temperature Dewpoint
16°C / 61°F 15°C / 59°F
Humidity Altimeter Pressure
94% 29.88" Hg 1012 hPa